sensor_id;sensor_type;location;lat;lon;timestamp;P1;durP1;ratioP1;P2;durP2;ratioP2
3901;SDS011;1966;49.908;9.156;2023-06-14T00:02:16;7.13;;;6.43;;
3901;SDS011;1966;49.908;9.156;2023-06-14T00:07:16;8.23;;;6.50;;
3901;SDS011;1966;49.908;9.156;2023-06-14T00:12:17;6.83;;;6.23;;
3901;SDS011;1966;49.908;9.156;2023-06-14T00:17:17;8.00;;;6.20;;
3901;SDS011;1966;49.908;9.156;2023-06-14T00:22:16;7.17;;;6.47;;
3901;SDS011;1966;49.908;9.156;2023-06-14T00:27:15;10.10;;;7.37;;
3901;SDS011;1966;49.908;9.156;2023-06-14T00:32:17;10.37;;;8.23;;
3901;SDS011;1966;49.908;9.156;2023-06-14T00:37:17;8.80;;;7.90;;
3901;SDS011;1966;49.908;9.156;2023-06-14T00:42:23;9.90;;;7.20;;
3901;SDS011;1966;49.908;9.156;2023-06-14T00:47:23;8.93;;;7.70;;
3901;SDS011;1966;49.908;9.156;2023-06-14T00:52:23;7.90;;;6.90;;
3901;SDS011;1966;49.908;9.156;2023-06-14T00:57:23;8.57;;;6.50;;
3901;SDS011;1966;49.908;9.156;2023-06-14T01:02:23;7.20;;;6.50;;
3901;SDS011;1966;49.908;9.156;2023-06-14T01:07:25;6.57;;;5.53;;
3901;SDS011;1966;49.908;9.156;2023-06-14T01:12:30;6.63;;;6.03;;
3901;SDS011;1966;49.908;9.156;2023-06-14T01:17:32;6.97;;;5.80;;
3901;SDS011;1966;49.908;9.156;2023-06-14T01:22:31;8.83;;;6.33;;
3901;SDS011;1966;49.908;9.156;2023-06-14T01:27:32;16.70;;;6.33;;
3901;SDS011;1966;49.908;9.156;2023-06-14T01:32:31;6.23;;;5.63;;
3901;SDS011;1966;49.908;9.156;2023-06-14T01:37:38;7.53;;;5.80;;
3901;SDS011;1966;49.908;9.156;2023-06-14T01:42:40;11.33;;;7.67;;
3901;SDS011;1966;49.908;9.156;2023-06-14T01:47:39;8.23;;;7.43;;
3901;SDS011;1966;49.908;9.156;2023-06-14T01:52:39;9.13;;;8.20;;
3901;SDS011;1966;49.908;9.156;2023-06-14T01:57:39;9.10;;;7.50;;
3901;SDS011;1966;49.908;9.156;2023-06-14T02:02:39;10.47;;;8.27;;
3901;SDS011;1966;49.908;9.156;2023-06-14T02:07:38;10.30;;;7.47;;
3901;SDS011;1966;49.908;9.156;2023-06-14T02:12:37;8.93;;;7.90;;
3901;SDS011;1966;49.908;9.156;2023-06-14T02:17:38;8.53;;;7.40;;
3901;SDS011;1966;49.908;9.156;2023-06-14T02:22:37;8.70;;;6.97;;
3901;SDS011;1966;49.908;9.156;2023-06-14T02:27:36;13.30;;;7.37;;
3901;SDS011;1966;49.908;9.156;2023-06-14T02:32:36;9.73;;;8.37;;
3901;SDS011;1966;49.908;9.156;2023-06-14T02:37:36;9.93;;;7.23;;
3901;SDS011;1966;49.908;9.156;2023-06-14T02:42:35;7.77;;;7.00;;
3901;SDS011;1966;49.908;9.156;2023-06-14T02:47:35;7.23;;;6.17;;
3901;SDS011;1966;49.908;9.156;2023-06-14T02:52:34;9.57;;;6.43;;
3901;SDS011;1966;49.908;9.156;2023-06-14T02:57:34;8.67;;;7.30;;
3901;SDS011;1966;49.908;9.156;2023-06-14T03:02:34;10.70;;;7.37;;
3901;SDS011;1966;49.908;9.156;2023-06-14T03:07:33;8.17;;;6.70;;
3901;SDS011;1966;49.908;9.156;2023-06-14T03:12:32;16.30;;;7.90;;
3901;SDS011;1966;49.908;9.156;2023-06-14T03:17:33;13.20;;;7.77;;
3901;SDS011;1966;49.908;9.156;2023-06-14T03:22:33;11.10;;;8.07;;
3901;SDS011;1966;49.908;9.156;2023-06-14T03:27:32;9.40;;;7.03;;
3901;SDS011;1966;49.908;9.156;2023-06-14T03:32:34;8.23;;;6.53;;
3901;SDS011;1966;49.908;9.156;2023-06-14T03:37:33;9.43;;;7.50;;
3901;SDS011;1966;49.908;9.156;2023-06-14T03:42:33;9.43;;;6.83;;
3901;SDS011;1966;49.908;9.156;2023-06-14T03:47:32;8.13;;;7.03;;
3901;SDS011;1966;49.908;9.156;2023-06-14T03:52:33;9.43;;;7.53;;
3901;SDS011;1966;49.908;9.156;2023-06-14T03:57:32;8.90;;;7.47;;
3901;SDS011;1966;49.908;9.156;2023-06-14T04:02:31;15.83;;;8.03;;
3901;SDS011;1966;49.908;9.156;2023-06-14T04:07:30;10.63;;;8.37;;
3901;SDS011;1966;49.908;9.156;2023-06-14T04:12:31;9.43;;;8.43;;
3901;SDS011;1966;49.908;9.156;2023-06-14T04:17:30;12.37;;;8.70;;
3901;SDS011;1966;49.908;9.156;2023-06-14T04:22:30;14.77;;;11.00;;
3901;SDS011;1966;49.908;9.156;2023-06-14T04:27:30;12.47;;;10.90;;
3901;SDS011;1966;49.908;9.156;2023-06-14T04:32:35;17.57;;;10.93;;
3901;SDS011;1966;49.908;9.156;2023-06-14T04:37:37;17.23;;;10.10;;
3901;SDS011;1966;49.908;9.156;2023-06-14T04:42:39;14.50;;;10.23;;
3901;SDS011;1966;49.908;9.156;2023-06-14T04:47:40;13.83;;;9.67;;
3901;SDS011;1966;49.908;9.156;2023-06-14T04:52:40;13.90;;;11.00;;
3901;SDS011;1966;49.908;9.156;2023-06-14T04:57:39;12.03;;;9.47;;
3901;SDS011;1966;49.908;9.156;2023-06-14T05:02:41;15.70;;;10.30;;
3901;SDS011;1966;49.908;9.156;2023-06-14T05:07:40;13.40;;;10.23;;
3901;SDS011;1966;49.908;9.156;2023-06-14T05:12:39;17.43;;;9.83;;
3901;SDS011;1966;49.908;9.156;2023-06-14T05:17:42;13.20;;;9.90;;
3901;SDS011;1966;49.908;9.156;2023-06-14T05:22:42;15.13;;;10.20;;
3901;SDS011;1966;49.908;9.156;2023-06-14T05:27:41;13.43;;;10.57;;
3901;SDS011;1966;49.908;9.156;2023-06-14T05:32:40;13.10;;;10.77;;
3901;SDS011;1966;49.908;9.156;2023-06-14T05:37:41;15.93;;;10.00;;
3901;SDS011;1966;49.908;9.156;2023-06-14T05:42:40;22.77;;;10.00;;
3901;SDS011;1966;49.908;9.156;2023-06-14T05:47:40;14.30;;;10.30;;
3901;SDS011;1966;49.908;9.156;2023-06-14T05:52:39;16.80;;;10.07;;
3901;SDS011;1966;49.908;9.156;2023-06-14T05:57:40;19.93;;;11.37;;
3901;SDS011;1966;49.908;9.156;2023-06-14T06:02:39;13.17;;;10.37;;
3901;SDS011;1966;49.908;9.156;2023-06-14T06:07:39;10.73;;;8.50;;
3901;SDS011;1966;49.908;9.156;2023-06-14T06:12:40;15.07;;;10.13;;
3901;SDS011;1966;49.908;9.156;2023-06-14T06:17:39;13.20;;;8.53;;
3901;SDS011;1966;49.908;9.156;2023-06-14T06:22:39;12.17;;;7.87;;
3901;SDS011;1966;49.908;9.156;2023-06-14T06:27:39;7.07;;;6.07;;
3901;SDS011;1966;49.908;9.156;2023-06-14T06:32:39;6.40;;;5.80;;
3901;SDS011;1966;49.908;9.156;2023-06-14T06:37:38;7.57;;;5.63;;
3901;SDS011;1966;49.908;9.156;2023-06-14T06:42:37;5.67;;;5.00;;
3901;SDS011;1966;49.908;9.156;2023-06-14T06:47:38;5.77;;;4.60;;
3901;SDS011;1966;49.908;9.156;2023-06-14T06:52:37;5.27;;;4.77;;
3901;SDS011;1966;49.908;9.156;2023-06-14T06:57:36;5.57;;;4.97;;
3901;SDS011;1966;49.908;9.156;2023-06-14T07:02:36;6.63;;;4.60;;
3901;SDS011;1966;49.908;9.156;2023-06-14T07:07:36;10.83;;;4.87;;
3901;SDS011;1966;49.908;9.156;2023-06-14T07:12:36;5.17;;;4.17;;
3901;SDS011;1966;49.908;9.156;2023-06-14T07:17:37;7.10;;;5.07;;
3901;SDS011;1966;49.908;9.156;2023-06-14T07:22:38;4.57;;;3.90;;
3901;SDS011;1966;49.908;9.156;2023-06-14T07:27:38;5.30;;;4.33;;
3901;SDS011;1966;49.908;9.156;2023-06-14T07:32:38;6.27;;;4.37;;
3901;SDS011;1966;49.908;9.156;2023-06-14T07:37:39;6.33;;;4.00;;
3901;SDS011;1966;49.908;9.156;2023-06-14T07:42:38;5.63;;;3.97;;
3901;SDS011;1966;49.908;9.156;2023-06-14T07:47:37;5.20;;;4.20;;
3901;SDS011;1966;49.908;9.156;2023-06-14T07:52:36;5.20;;;4.07;;
3901;SDS011;1966;49.908;9.156;2023-06-14T07:57:37;8.17;;;3.70;;
3901;SDS011;1966;49.908;9.156;2023-06-14T08:02:36;4.30;;;3.63;;
3901;SDS011;1966;49.908;9.156;2023-06-14T08:07:35;4.37;;;3.87;;
3901;SDS011;1966;49.908;9.156;2023-06-14T08:12:35;8.10;;;4.37;;
3901;SDS011;1966;49.908;9.156;2023-06-14T08:17:37;5.33;;;4.03;;
3901;SDS011;1966;49.908;9.156;2023-06-14T08:22:36;6.77;;;3.90;;
3901;SDS011;1966;49.908;9.156;2023-06-14T08:27:36;7.33;;;4.20;;
3901;SDS011;1966;49.908;9.156;2023-06-14T08:32:36;3.60;;;3.30;;
3901;SDS011;1966;49.908;9.156;2023-06-14T08:37:37;4.77;;;4.20;;
3901;SDS011;1966;49.908;9.156;2023-06-14T08:42:37;7.50;;;3.70;;
3901;SDS011;1966;49.908;9.156;2023-06-14T08:47:38;5.93;;;3.67;;
3901;SDS011;1966;49.908;9.156;2023-06-14T08:52:38;5.73;;;3.40;;
3901;SDS011;1966;49.908;9.156;2023-06-14T08:57:38;5.90;;;3.93;;
3901;SDS011;1966;49.908;9.156;2023-06-14T09:02:40;4.03;;;3.63;;
3901;SDS011;1966;49.908;9.156;2023-06-14T09:07:41;4.30;;;3.90;;
3901;SDS011;1966;49.908;9.156;2023-06-14T09:12:41;3.77;;;3.47;;
3901;SDS011;1966;49.908;9.156;2023-06-14T09:17:42;6.30;;;4.07;;
3901;SDS011;1966;49.908;9.156;2023-06-14T09:22:41;4.03;;;3.57;;
3901;SDS011;1966;49.908;9.156;2023-06-14T09:27:41;4.33;;;3.87;;
3901;SDS011;1966;49.908;9.156;2023-06-14T09:32:41;5.53;;;3.60;;
3901;SDS011;1966;49.908;9.156;2023-06-14T09:37:40;6.40;;;3.53;;
3901;SDS011;1966;49.908;9.156;2023-06-14T09:42:40;3.90;;;3.60;;
3901;SDS011;1966;49.908;9.156;2023-06-14T09:47:39;3.90;;;3.50;;
3901;SDS011;1966;49.908;9.156;2023-06-14T09:52:40;4.37;;;4.00;;
3901;SDS011;1966;49.908;9.156;2023-06-14T09:57:40;4.10;;;3.80;;
3901;SDS011;1966;49.908;9.156;2023-06-14T10:02:41;4.97;;;4.23;;
3901;SDS011;1966;49.908;9.156;2023-06-14T10:07:51;4.10;;;3.80;;
3901;SDS011;1966;49.908;9.156;2023-06-14T10:12:51;4.93;;;3.80;;
3901;SDS011;1966;49.908;9.156;2023-06-14T10:17:52;5.77;;;3.67;;
3901;SDS011;1966;49.908;9.156;2023-06-14T10:22:55;4.00;;;3.47;;
3901;SDS011;1966;49.908;9.156;2023-06-14T10:28:03;7.43;;;3.70;;
3901;SDS011;1966;49.908;9.156;2023-06-14T10:33:03;3.17;;;2.87;;
3901;SDS011;1966;49.908;9.156;2023-06-14T10:38:08;3.87;;;3.20;;
3901;SDS011;1966;49.908;9.156;2023-06-14T10:43:22;3.10;;;2.80;;
3901;SDS011;1966;49.908;9.156;2023-06-14T10:48:29;4.50;;;3.20;;
3901;SDS011;1966;49.908;9.156;2023-06-14T10:53:30;3.50;;;3.20;;
3901;SDS011;1966;49.908;9.156;2023-06-14T10:58:38;5.47;;;3.10;;
3901;SDS011;1966;49.908;9.156;2023-06-14T11:03:43;7.80;;;5.17;;
3901;SDS011;1966;49.908;9.156;2023-06-14T11:14:08;3.90;;;3.60;;
3901;SDS011;1966;49.908;9.156;2023-06-14T11:19:07;3.38;;;3.00;;
3901;SDS011;1966;49.908;9.156;2023-06-14T11:24:09;4.03;;;2.90;;
3901;SDS011;1966;49.908;9.156;2023-06-14T11:29:10;3.10;;;2.90;;
3901;SDS011;1966;49.908;9.156;2023-06-14T11:34:09;5.05;;;3.00;;
3901;SDS011;1966;49.908;9.156;2023-06-14T11:39:08;4.78;;;3.10;;
3901;SDS011;1966;49.908;9.156;2023-06-14T11:44:10;3.33;;;3.08;;
3901;SDS011;1966;49.908;9.156;2023-06-14T11:49:10;6.40;;;3.20;;
3901;SDS011;1966;49.908;9.156;2023-06-14T11:54:09;4.07;;;3.33;;
3901;SDS011;1966;49.908;9.156;2023-06-14T11:59:09;3.38;;;3.08;;
3901;SDS011;1966;49.908;9.156;2023-06-14T12:04:09;2.92;;;2.72;;
3901;SDS011;1966;49.908;9.156;2023-06-14T12:09:08;3.33;;;3.13;;
3901;SDS011;1966;49.908;9.156;2023-06-14T12:14:12;2.67;;;2.45;;
3901;SDS011;1966;49.908;9.156;2023-06-14T12:19:12;3.60;;;2.88;;
3901;SDS011;1966;49.908;9.156;2023-06-14T12:24:11;3.00;;;2.80;;
3901;SDS011;1966;49.908;9.156;2023-06-14T12:29:12;4.28;;;2.58;;
3901;SDS011;1966;49.908;9.156;2023-06-14T12:34:11;2.88;;;2.60;;
3901;SDS011;1966;49.908;9.156;2023-06-14T12:39:10;2.78;;;2.55;;
3901;SDS011;1966;49.908;9.156;2023-06-14T12:44:10;2.67;;;2.58;;
3901;SDS011;1966;49.908;9.156;2023-06-14T12:49:11;2.72;;;2.42;;
3901;SDS011;1966;49.908;9.156;2023-06-14T12:54:10;4.13;;;2.45;;
3901;SDS011;1966;49.908;9.156;2023-06-14T12:59:10;2.97;;;2.78;;
3901;SDS011;1966;49.908;9.156;2023-06-14T13:04:10;5.90;;;2.83;;
3901;SDS011;1966;49.908;9.156;2023-06-14T13:09:09;4.20;;;3.20;;
3901;SDS011;1966;49.908;9.156;2023-06-14T13:14:09;3.03;;;2.83;;
3901;SDS011;1966;49.908;9.156;2023-06-14T13:19:08;3.03;;;2.83;;
3901;SDS011;1966;49.908;9.156;2023-06-14T13:24:09;3.30;;;2.70;;
3901;SDS011;1966;49.908;9.156;2023-06-14T13:29:08;2.83;;;2.63;;
3901;SDS011;1966;49.908;9.156;2023-06-14T13:34:07;3.20;;;2.90;;
3901;SDS011;1966;49.908;9.156;2023-06-14T13:39:07;3.80;;;2.50;;
3901;SDS011;1966;49.908;9.156;2023-06-14T13:44:08;2.55;;;2.40;;
3901;SDS011;1966;49.908;9.156;2023-06-14T13:49:09;3.85;;;2.30;;
3901;SDS011;1966;49.908;9.156;2023-06-14T13:54:08;5.25;;;2.78;;
3901;SDS011;1966;49.908;9.156;2023-06-14T13:59:09;2.70;;;2.53;;
3901;SDS011;1966;49.908;9.156;2023-06-14T14:04:08;2.92;;;2.72;;
3901;SDS011;1966;49.908;9.156;2023-06-14T14:09:09;2.65;;;2.45;;
3901;SDS011;1966;49.908;9.156;2023-06-14T14:14:10;2.70;;;2.60;;
3901;SDS011;1966;49.908;9.156;2023-06-14T14:19:09;6.30;;;2.50;;
3901;SDS011;1966;49.908;9.156;2023-06-14T14:24:08;2.17;;;2.08;;
3901;SDS011;1966;49.908;9.156;2023-06-14T14:29:07;2.28;;;2.08;;
3901;SDS011;1966;49.908;9.156;2023-06-14T14:34:10;2.10;;;2.00;;
3901;SDS011;1966;49.908;9.156;2023-06-14T14:39:09;4.45;;;2.40;;
3901;SDS011;1966;49.908;9.156;2023-06-14T14:44:09;3.53;;;3.00;;
3901;SDS011;1966;49.908;9.156;2023-06-14T14:49:08;2.80;;;2.60;;
3901;SDS011;1966;49.908;9.156;2023-06-14T14:54:09;3.03;;;2.83;;
3901;SDS011;1966;49.908;9.156;2023-06-14T14:59:08;2.80;;;2.60;;
3901;SDS011;1966;49.908;9.156;2023-06-14T15:04:07;4.20;;;3.17;;
3901;SDS011;1966;49.908;9.156;2023-06-14T15:09:06;3.20;;;2.70;;
3901;SDS011;1966;49.908;9.156;2023-06-14T15:14:07;2.40;;;2.30;;
3901;SDS011;1966;49.908;9.156;2023-06-14T15:19:06;3.20;;;2.33;;
3901;SDS011;1966;49.908;9.156;2023-06-14T15:24:06;2.30;;;2.20;;
3901;SDS011;1966;49.908;9.156;2023-06-14T15:29:06;2.50;;;2.30;;
3901;SDS011;1966;49.908;9.156;2023-06-14T15:34:06;4.82;;;2.35;;
3901;SDS011;1966;49.908;9.156;2023-06-14T15:39:05;2.75;;;2.60;;
3901;SDS011;1966;49.908;9.156;2023-06-14T15:44:04;2.70;;;2.50;;
3901;SDS011;1966;49.908;9.156;2023-06-14T15:49:06;2.70;;;2.50;;
3901;SDS011;1966;49.908;9.156;2023-06-14T15:54:07;2.10;;;2.00;;
3901;SDS011;1966;49.908;9.156;2023-06-14T15:59:07;2.40;;;2.20;;
3901;SDS011;1966;49.908;9.156;2023-06-14T16:04:08;5.00;;;2.67;;
3901;SDS011;1966;49.908;9.156;2023-06-14T16:09:07;3.00;;;2.80;;
3901;SDS011;1966;49.908;9.156;2023-06-14T16:14:06;3.15;;;2.60;;
3901;SDS011;1966;49.908;9.156;2023-06-14T16:19:05;3.00;;;2.78;;
3901;SDS011;1966;49.908;9.156;2023-06-14T16:24:07;3.20;;;2.90;;
3901;SDS011;1966;49.908;9.156;2023-06-14T16:29:07;3.60;;;3.30;;
3901;SDS011;1966;49.908;9.156;2023-06-14T16:34:06;5.60;;;3.37;;
3901;SDS011;1966;49.908;9.156;2023-06-14T16:39:10;6.50;;;2.83;;
3901;SDS011;1966;49.908;9.156;2023-06-14T16:44:10;4.90;;;3.50;;
3901;SDS011;1966;49.908;9.156;2023-06-14T16:49:10;4.20;;;2.72;;
3901;SDS011;1966;49.908;9.156;2023-06-14T16:54:10;3.08;;;2.70;;
3901;SDS011;1966;49.908;9.156;2023-06-14T16:59:10;8.23;;;3.20;;
3901;SDS011;1966;49.908;9.156;2023-06-14T17:04:09;4.23;;;3.23;;
3901;SDS011;1966;49.908;9.156;2023-06-14T17:09:08;3.90;;;3.47;;
3901;SDS011;1966;49.908;9.156;2023-06-14T17:14:09;3.50;;;3.00;;
3901;SDS011;1966;49.908;9.156;2023-06-14T17:19:10;4.23;;;2.83;;
3901;SDS011;1966;49.908;9.156;2023-06-14T17:24:09;3.70;;;3.40;;
3901;SDS011;1966;49.908;9.156;2023-06-14T17:29:10;3.20;;;3.00;;
3901;SDS011;1966;49.908;9.156;2023-06-14T17:34:09;3.20;;;3.00;;
3901;SDS011;1966;49.908;9.156;2023-06-14T17:39:08;5.60;;;2.73;;
3901;SDS011;1966;49.908;9.156;2023-06-14T17:44:07;4.30;;;3.10;;
3901;SDS011;1966;49.908;9.156;2023-06-14T17:49:08;4.70;;;3.30;;
3901;SDS011;1966;49.908;9.156;2023-06-14T17:54:07;3.63;;;3.30;;
3901;SDS011;1966;49.908;9.156;2023-06-14T17:59:07;3.43;;;3.07;;
3901;SDS011;1966;49.908;9.156;2023-06-14T18:04:06;4.13;;;3.40;;
3901;SDS011;1966;49.908;9.156;2023-06-14T18:09:08;4.33;;;3.23;;
3901;SDS011;1966;49.908;9.156;2023-06-14T18:14:07;3.53;;;3.23;;
3901;SDS011;1966;49.908;9.156;2023-06-14T18:19:07;4.60;;;3.30;;
3901;SDS011;1966;49.908;9.156;2023-06-14T18:24:07;8.53;;;3.40;;
3901;SDS011;1966;49.908;9.156;2023-06-14T18:29:08;4.13;;;3.37;;
3901;SDS011;1966;49.908;9.156;2023-06-14T18:34:07;3.60;;;3.30;;
3901;SDS011;1966;49.908;9.156;2023-06-14T18:39:10;3.70;;;3.30;;
3901;SDS011;1966;49.908;9.156;2023-06-14T18:44:09;3.73;;;3.43;;
3901;SDS011;1966;49.908;9.156;2023-06-14T18:49:08;5.67;;;3.70;;
3901;SDS011;1966;49.908;9.156;2023-06-14T18:54:07;3.40;;;3.13;;
3901;SDS011;1966;49.908;9.156;2023-06-14T18:59:08;4.47;;;3.70;;
3901;SDS011;1966;49.908;9.156;2023-06-14T19:04:07;8.43;;;3.87;;
3901;SDS011;1966;49.908;9.156;2023-06-14T19:09:06;3.50;;;3.20;;
3901;SDS011;1966;49.908;9.156;2023-06-14T19:14:06;3.80;;;3.37;;
3901;SDS011;1966;49.908;9.156;2023-06-14T19:19:06;3.80;;;3.47;;
3901;SDS011;1966;49.908;9.156;2023-06-14T19:24:05;6.73;;;4.07;;
3901;SDS011;1966;49.908;9.156;2023-06-14T19:29:05;4.27;;;3.87;;
3901;SDS011;1966;49.908;9.156;2023-06-14T19:34:04;5.73;;;4.30;;
3901;SDS011;1966;49.908;9.156;2023-06-14T19:39:05;5.17;;;4.13;;
3901;SDS011;1966;49.908;9.156;2023-06-14T19:44:04;4.73;;;4.33;;
3901;SDS011;1966;49.908;9.156;2023-06-14T19:49:03;6.10;;;4.27;;
3901;SDS011;1966;49.908;9.156;2023-06-14T19:54:03;4.40;;;4.00;;
3901;SDS011;1966;49.908;9.156;2023-06-14T19:59:03;4.87;;;4.37;;
3901;SDS011;1966;49.908;9.156;2023-06-14T20:04:03;8.30;;;4.50;;
3901;SDS011;1966;49.908;9.156;2023-06-14T20:09:02;5.37;;;4.20;;
3901;SDS011;1966;49.908;9.156;2023-06-14T20:14:07;4.47;;;4.07;;
3901;SDS011;1966;49.908;9.156;2023-06-14T20:19:07;5.40;;;4.90;;
3901;SDS011;1966;49.908;9.156;2023-06-14T20:24:06;4.80;;;4.40;;
3901;SDS011;1966;49.908;9.156;2023-06-14T20:29:07;4.50;;;4.10;;
3901;SDS011;1966;49.908;9.156;2023-06-14T20:34:06;4.73;;;4.00;;
3901;SDS011;1966;49.908;9.156;2023-06-14T20:39:05;4.37;;;4.07;;
3901;SDS011;1966;49.908;9.156;2023-06-14T20:44:05;4.70;;;4.30;;
3901;SDS011;1966;49.908;9.156;2023-06-14T20:49:08;5.70;;;4.50;;
3901;SDS011;1966;49.908;9.156;2023-06-14T20:54:07;4.53;;;4.13;;
3901;SDS011;1966;49.908;9.156;2023-06-14T20:59:06;4.83;;;4.33;;
3901;SDS011;1966;49.908;9.156;2023-06-14T21:04:06;5.43;;;4.67;;
3901;SDS011;1966;49.908;9.156;2023-06-14T21:09:06;4.70;;;4.30;;
3901;SDS011;1966;49.908;9.156;2023-06-14T21:14:07;8.40;;;4.33;;
3901;SDS011;1966;49.908;9.156;2023-06-14T21:19:06;4.77;;;4.23;;
3901;SDS011;1966;49.908;9.156;2023-06-14T21:24:07;4.97;;;4.50;;
3901;SDS011;1966;49.908;9.156;2023-06-14T21:29:06;4.73;;;4.23;;
3901;SDS011;1966;49.908;9.156;2023-06-14T21:34:06;5.97;;;5.03;;
3901;SDS011;1966;49.908;9.156;2023-06-14T21:39:06;4.40;;;4.00;;
3901;SDS011;1966;49.908;9.156;2023-06-14T21:44:06;5.40;;;4.90;;
3901;SDS011;1966;49.908;9.156;2023-06-14T21:49:05;5.37;;;4.83;;
3901;SDS011;1966;49.908;9.156;2023-06-14T21:54:04;6.80;;;4.57;;
3901;SDS011;1966;49.908;9.156;2023-06-14T21:59:05;5.10;;;4.63;;
3901;SDS011;1966;49.908;9.156;2023-06-14T22:04:04;4.90;;;4.50;;
3901;SDS011;1966;49.908;9.156;2023-06-14T22:09:03;4.80;;;4.40;;
3901;SDS011;1966;49.908;9.156;2023-06-14T22:14:04;6.93;;;5.13;;
3901;SDS011;1966;49.908;9.156;2023-06-14T22:19:07;5.20;;;4.70;;
3901;SDS011;1966;49.908;9.156;2023-06-14T22:24:06;8.33;;;4.20;;
3901;SDS011;1966;49.908;9.156;2023-06-14T22:29:07;6.60;;;4.67;;
3901;SDS011;1966;49.908;9.156;2023-06-14T22:34:06;4.40;;;4.00;;
3901;SDS011;1966;49.908;9.156;2023-06-14T22:39:06;4.83;;;4.33;;
3901;SDS011;1966;49.908;9.156;2023-06-14T22:44:08;5.00;;;4.50;;
3901;SDS011;1966;49.908;9.156;2023-06-14T22:49:07;5.00;;;4.60;;
3901;SDS011;1966;49.908;9.156;2023-06-14T22:54:07;5.30;;;4.80;;
3901;SDS011;1966;49.908;9.156;2023-06-14T22:59:08;4.60;;;4.20;;
3901;SDS011;1966;49.908;9.156;2023-06-14T23:04:07;4.43;;;3.90;;
3901;SDS011;1966;49.908;9.156;2023-06-14T23:09:07;5.17;;;4.33;;
3901;SDS011;1966;49.908;9.156;2023-06-14T23:14:06;4.67;;;4.27;;
3901;SDS011;1966;49.908;9.156;2023-06-14T23:19:07;5.90;;;4.60;;
3901;SDS011;1966;49.908;9.156;2023-06-14T23:24:06;5.07;;;4.57;;
3901;SDS011;1966;49.908;9.156;2023-06-14T23:29:07;5.50;;;4.00;;
3901;SDS011;1966;49.908;9.156;2023-06-14T23:34:08;5.90;;;4.77;;
3901;SDS011;1966;49.908;9.156;2023-06-14T23:39:07;4.60;;;4.23;;
3901;SDS011;1966;49.908;9.156;2023-06-14T23:44:07;4.70;;;4.30;;
3901;SDS011;1966;49.908;9.156;2023-06-14T23:49:06;6.20;;;4.23;;
3901;SDS011;1966;49.908;9.156;2023-06-14T23:54:07;4.63;;;4.23;;
3901;SDS011;1966;49.908;9.156;2023-06-14T23:59:07;4.73;;;4.17;;
